sensor_id;sensor_type;location;lat;lon;timestamp;temperature;humidity
45537;DHT22;31262;51.978;5.924;2022-08-01T00:02:27;23.00;74.00
45537;DHT22;31262;51.978;5.924;2022-08-01T00:04:54;23.00;74.00
45537;DHT22;31262;51.978;5.924;2022-08-01T00:07:20;23.00;74.10
45537;DHT22;31262;51.978;5.924;2022-08-01T00:09:45;22.90;74.00
45537;DHT22;31262;51.978;5.924;2022-08-01T00:12:11;23.00;74.00
45537;DHT22;31262;51.978;5.924;2022-08-01T00:14:36;23.00;73.90
45537;DHT22;31262;51.978;5.924;2022-08-01T00:17:03;22.90;73.80
45537;DHT22;31262;51.978;5.924;2022-08-01T00:19:28;23.00;73.90
45537;DHT22;31262;51.978;5.924;2022-08-01T00:21:54;22.90;73.90
45537;DHT22;31262;51.978;5.924;2022-08-01T00:24:19;22.90;74.10
45537;DHT22;31262;51.978;5.924;2022-08-01T00:26:45;22.90;74.10
45537;DHT22;31262;51.978;5.924;2022-08-01T00:29:10;22.90;74.20
45537;DHT22;31262;51.978;5.924;2022-08-01T00:31:36;22.80;74.10
45537;DHT22;31262;51.978;5.924;2022-08-01T00:34:02;22.90;74.10
45537;DHT22;31262;51.978;5.924;2022-08-01T00:36:27;22.90;74.10
45537;DHT22;31262;51.978;5.924;2022-08-01T00:38:53;22.90;74.00
45537;DHT22;31262;51.978;5.924;2022-08-01T00:41:19;22.90;74.00
45537;DHT22;31262;51.978;5.924;2022-08-01T00:43:44;22.90;73.90
45537;DHT22;31262;51.978;5.924;2022-08-01T00:46:10;22.90;73.90
45537;DHT22;31262;51.978;5.924;2022-08-01T00:48:35;22.90;73.80
45537;DHT22;31262;51.978;5.924;2022-08-01T00:51:03;22.90;73.70
45537;DHT22;31262;51.978;5.924;2022-08-01T00:53:29;23.00;73.70
45537;DHT22;31262;51.978;5.924;2022-08-01T00:55:55;22.90;73.60
45537;DHT22;31262;51.978;5.924;2022-08-01T00:58:21;22.90;73.50
45537;DHT22;31262;51.978;5.924;2022-08-01T01:00:47;22.90;73.50
45537;DHT22;31262;51.978;5.924;2022-08-01T01:03:13;22.90;74.20
45537;DHT22;31262;51.978;5.924;2022-08-01T01:05:48;22.90;73.50
45537;DHT22;31262;51.978;5.924;2022-08-01T01:08:19;22.90;73.50
45537;DHT22;31262;51.978;5.924;2022-08-01T01:11:25;22.90;73.60
45537;DHT22;31262;51.978;5.924;2022-08-01T01:13:56;22.80;73.60
45537;DHT22;31262;51.978;5.924;2022-08-01T01:16:24;22.80;73.60
45537;DHT22;31262;51.978;5.924;2022-08-01T01:18:54;22.70;73.70
45537;DHT22;31262;51.978;5.924;2022-08-01T01:29:16;22.70;73.40
45537;DHT22;31262;51.978;5.924;2022-08-01T01:32:00;22.90;73.30
45537;DHT22;31262;51.978;5.924;2022-08-01T01:34:28;23.00;73.00
45537;DHT22;31262;51.978;5.924;2022-08-01T01:36:54;23.00;72.90
45537;DHT22;31262;51.978;5.924;2022-08-01T01:39:24;23.00;72.90
45537;DHT22;31262;51.978;5.924;2022-08-01T01:41:53;23.00;72.90
45537;DHT22;31262;51.978;5.924;2022-08-01T01:44:20;22.90;73.10
45537;DHT22;31262;51.978;5.924;2022-08-01T01:46:47;22.60;73.20
45537;DHT22;31262;51.978;5.924;2022-08-01T01:49:14;22.70;73.50
45537;DHT22;31262;51.978;5.924;2022-08-01T01:51:42;22.70;73.50
45537;DHT22;31262;51.978;5.924;2022-08-01T01:54:08;22.80;73.40
45537;DHT22;31262;51.978;5.924;2022-08-01T01:56:35;22.80;73.50
45537;DHT22;31262;51.978;5.924;2022-08-01T01:59:18;22.70;73.50
45537;DHT22;31262;51.978;5.924;2022-08-01T02:01:48;22.70;73.60
45537;DHT22;31262;51.978;5.924;2022-08-01T02:04:16;22.70;73.50
45537;DHT22;31262;51.978;5.924;2022-08-01T02:06:43;22.70;73.60
45537;DHT22;31262;51.978;5.924;2022-08-01T02:09:09;22.70;73.70
45537;DHT22;31262;51.978;5.924;2022-08-01T02:11:36;22.70;73.60
45537;DHT22;31262;51.978;5.924;2022-08-01T02:14:04;22.70;73.70
45537;DHT22;31262;51.978;5.924;2022-08-01T02:16:34;22.70;73.90
45537;DHT22;31262;51.978;5.924;2022-08-01T02:19:00;22.70;73.80
45537;DHT22;31262;51.978;5.924;2022-08-01T02:21:49;22.60;73.90
45537;DHT22;31262;51.978;5.924;2022-08-01T02:24:26;22.70;73.60
45537;DHT22;31262;51.978;5.924;2022-08-01T02:26:58;22.60;73.90
45537;DHT22;31262;51.978;5.924;2022-08-01T02:29:35;22.60;74.20
45537;DHT22;31262;51.978;5.924;2022-08-01T02:32:02;22.60;74.10
45537;DHT22;31262;51.978;5.924;2022-08-01T02:34:30;22.60;74.20
45537;DHT22;31262;51.978;5.924;2022-08-01T02:36:59;22.60;74.20
45537;DHT22;31262;51.978;5.924;2022-08-01T02:39:27;22.60;74.20
45537;DHT22;31262;51.978;5.924;2022-08-01T02:41:58;22.60;74.30
45537;DHT22;31262;51.978;5.924;2022-08-01T02:44:30;22.60;74.30
45537;DHT22;31262;51.978;5.924;2022-08-01T02:47:03;22.60;74.50
45537;DHT22;31262;51.978;5.924;2022-08-01T02:49:35;22.60;74.50
45537;DHT22;31262;51.978;5.924;2022-08-01T02:52:05;22.60;74.70
45537;DHT22;31262;51.978;5.924;2022-08-01T02:54:32;22.60;74.80
45537;DHT22;31262;51.978;5.924;2022-08-01T02:57:00;22.50;75.00
45537;DHT22;31262;51.978;5.924;2022-08-01T02:59:27;22.50;75.10
45537;DHT22;31262;51.978;5.924;2022-08-01T03:01:57;22.50;75.40
45537;DHT22;31262;51.978;5.924;2022-08-01T03:04:25;22.40;75.40
45537;DHT22;31262;51.978;5.924;2022-08-01T03:06:52;22.40;75.60
45537;DHT22;31262;51.978;5.924;2022-08-01T03:09:19;22.40;75.70
45537;DHT22;31262;51.978;5.924;2022-08-01T03:11:46;22.30;75.90
45537;DHT22;31262;51.978;5.924;2022-08-01T03:14:14;22.30;75.90
45537;DHT22;31262;51.978;5.924;2022-08-01T03:16:43;22.30;76.10
45537;DHT22;31262;51.978;5.924;2022-08-01T03:19:11;22.30;76.10
45537;DHT22;31262;51.978;5.924;2022-08-01T03:21:37;22.30;76.20
45537;DHT22;31262;51.978;5.924;2022-08-01T03:24:06;22.30;76.30
45537;DHT22;31262;51.978;5.924;2022-08-01T03:26:34;22.30;76.20
45537;DHT22;31262;51.978;5.924;2022-08-01T03:29:06;22.30;76.20
45537;DHT22;31262;51.978;5.924;2022-08-01T03:31:34;22.40;76.10
45537;DHT22;31262;51.978;5.924;2022-08-01T03:34:00;22.40;76.10
45537;DHT22;31262;51.978;5.924;2022-08-01T03:36:28;22.30;76.10
45537;DHT22;31262;51.978;5.924;2022-08-01T03:38:58;22.40;76.10
45537;DHT22;31262;51.978;5.924;2022-08-01T03:41:28;22.40;75.90
45537;DHT22;31262;51.978;5.924;2022-08-01T03:44:00;22.40;75.80
45537;DHT22;31262;51.978;5.924;2022-08-01T03:46:47;22.40;75.70
45537;DHT22;31262;51.978;5.924;2022-08-01T03:49:18;22.40;75.50
45537;DHT22;31262;51.978;5.924;2022-08-01T03:51:47;22.40;75.80
45537;DHT22;31262;51.978;5.924;2022-08-01T03:54:15;22.30;75.70
45537;DHT22;31262;51.978;5.924;2022-08-01T03:56:43;22.10;75.70
45537;DHT22;31262;51.978;5.924;2022-08-01T03:59:11;22.30;76.10
45537;DHT22;31262;51.978;5.924;2022-08-01T04:01:37;22.30;75.90
45537;DHT22;31262;51.978;5.924;2022-08-01T04:04:03;22.30;75.90
45537;DHT22;31262;51.978;5.924;2022-08-01T04:06:31;22.30;76.00
45537;DHT22;31262;51.978;5.924;2022-08-01T04:08:56;22.30;75.90
45537;DHT22;31262;51.978;5.924;2022-08-01T04:11:26;22.30;75.90
45537;DHT22;31262;51.978;5.924;2022-08-01T04:13:53;22.30;75.90
45537;DHT22;31262;51.978;5.924;2022-08-01T04:16:20;22.30;76.00
45537;DHT22;31262;51.978;5.924;2022-08-01T04:18:46;22.30;76.10
45537;DHT22;31262;51.978;5.924;2022-08-01T04:21:13;22.30;76.10
45537;DHT22;31262;51.978;5.924;2022-08-01T04:23:40;22.30;76.10
45537;DHT22;31262;51.978;5.924;2022-08-01T04:26:07;22.20;76.10
45537;DHT22;31262;51.978;5.924;2022-08-01T04:28:35;22.20;76.20
45537;DHT22;31262;51.978;5.924;2022-08-01T04:31:02;22.20;76.10
45537;DHT22;31262;51.978;5.924;2022-08-01T04:33:30;22.20;76.20
45537;DHT22;31262;51.978;5.924;2022-08-01T04:35:58;22.20;76.40
45537;DHT22;31262;51.978;5.924;2022-08-01T04:38:26;22.20;76.30
45537;DHT22;31262;51.978;5.924;2022-08-01T04:40:54;22.20;76.30
45537;DHT22;31262;51.978;5.924;2022-08-01T04:43:20;22.20;76.30
45537;DHT22;31262;51.978;5.924;2022-08-01T04:45:47;22.20;76.30
45537;DHT22;31262;51.978;5.924;2022-08-01T04:48:15;22.20;76.30
45537;DHT22;31262;51.978;5.924;2022-08-01T04:50:41;22.20;76.20
45537;DHT22;31262;51.978;5.924;2022-08-01T04:53:18;22.20;76.40
45537;DHT22;31262;51.978;5.924;2022-08-01T04:55:44;22.30;76.20
45537;DHT22;31262;51.978;5.924;2022-08-01T04:58:11;22.20;76.40
45537;DHT22;31262;51.978;5.924;2022-08-01T05:00:37;22.20;76.50
45537;DHT22;31262;51.978;5.924;2022-08-01T05:03:03;22.20;76.40
45537;DHT22;31262;51.978;5.924;2022-08-01T05:05:28;22.30;76.30
45537;DHT22;31262;51.978;5.924;2022-08-01T05:07:55;22.30;76.30
45537;DHT22;31262;51.978;5.924;2022-08-01T05:10:24;22.20;76.30
45537;DHT22;31262;51.978;5.924;2022-08-01T05:12:51;22.30;76.30
45537;DHT22;31262;51.978;5.924;2022-08-01T05:15:17;22.20;76.40
45537;DHT22;31262;51.978;5.924;2022-08-01T05:17:43;22.30;76.40
45537;DHT22;31262;51.978;5.924;2022-08-01T05:20:09;22.20;76.40
45537;DHT22;31262;51.978;5.924;2022-08-01T05:22:35;22.30;76.20
45537;DHT22;31262;51.978;5.924;2022-08-01T05:25:00;22.30;76.20
45537;DHT22;31262;51.978;5.924;2022-08-01T05:27:26;22.30;76.10
45537;DHT22;31262;51.978;5.924;2022-08-01T05:29:52;22.40;76.10
45537;DHT22;31262;51.978;5.924;2022-08-01T05:32:17;22.40;76.00
45537;DHT22;31262;51.978;5.924;2022-08-01T05:34:43;22.40;76.00
45537;DHT22;31262;51.978;5.924;2022-08-01T05:37:09;22.40;76.10
45537;DHT22;31262;51.978;5.924;2022-08-01T05:39:35;22.40;76.20
45537;DHT22;31262;51.978;5.924;2022-08-01T05:42:00;22.40;76.10
45537;DHT22;31262;51.978;5.924;2022-08-01T05:44:26;22.40;76.10
45537;DHT22;31262;51.978;5.924;2022-08-01T05:46:52;22.40;76.20
45537;DHT22;31262;51.978;5.924;2022-08-01T05:49:17;22.40;76.30
45537;DHT22;31262;51.978;5.924;2022-08-01T05:51:43;22.40;76.30
45537;DHT22;31262;51.978;5.924;2022-08-01T05:54:09;22.30;76.20
45537;DHT22;31262;51.978;5.924;2022-08-01T05:56:34;22.30;76.20
45537;DHT22;31262;51.978;5.924;2022-08-01T05:59:00;22.30;76.50
45537;DHT22;31262;51.978;5.924;2022-08-01T06:01:25;22.20;76.70
45537;DHT22;31262;51.978;5.924;2022-08-01T06:03:51;22.20;76.80
45537;DHT22;31262;51.978;5.924;2022-08-01T06:06:20;22.20;76.80
45537;DHT22;31262;51.978;5.924;2022-08-01T06:08:46;22.30;77.30
45537;DHT22;31262;51.978;5.924;2022-08-01T06:11:11;22.30;76.60
45537;DHT22;31262;51.978;5.924;2022-08-01T06:13:37;22.30;76.50
45537;DHT22;31262;51.978;5.924;2022-08-01T06:16:03;22.30;76.60
45537;DHT22;31262;51.978;5.924;2022-08-01T06:18:28;22.30;76.50
45537;DHT22;31262;51.978;5.924;2022-08-01T06:20:54;22.40;76.50
45537;DHT22;31262;51.978;5.924;2022-08-01T06:23:20;22.40;76.30
45537;DHT22;31262;51.978;5.924;2022-08-01T06:25:47;22.50;76.20
45537;DHT22;31262;51.978;5.924;2022-08-01T06:28:12;22.50;76.00
45537;DHT22;31262;51.978;5.924;2022-08-01T06:30:38;22.50;75.80
45537;DHT22;31262;51.978;5.924;2022-08-01T06:33:04;22.50;75.70
45537;DHT22;31262;51.978;5.924;2022-08-01T06:35:30;22.60;75.40
45537;DHT22;31262;51.978;5.924;2022-08-01T06:37:56;22.60;75.30
45537;DHT22;31262;51.978;5.924;2022-08-01T06:40:22;22.60;75.10
45537;DHT22;31262;51.978;5.924;2022-08-01T06:42:48;22.70;74.90
45537;DHT22;31262;51.978;5.924;2022-08-01T06:45:14;22.70;74.70
45537;DHT22;31262;51.978;5.924;2022-08-01T06:47:41;22.70;74.70
45537;DHT22;31262;51.978;5.924;2022-08-01T06:50:08;22.70;74.80
45537;DHT22;31262;51.978;5.924;2022-08-01T06:52:34;22.70;74.60
45537;DHT22;31262;51.978;5.924;2022-08-01T06:55:01;22.70;74.50
45537;DHT22;31262;51.978;5.924;2022-08-01T06:57:27;22.70;74.30
45537;DHT22;31262;51.978;5.924;2022-08-01T06:59:53;22.70;74.00
45537;DHT22;31262;51.978;5.924;2022-08-01T07:02:19;22.70;73.90
45537;DHT22;31262;51.978;5.924;2022-08-01T07:04:45;22.70;74.10
45537;DHT22;31262;51.978;5.924;2022-08-01T07:07:11;22.70;74.40
45537;DHT22;31262;51.978;5.924;2022-08-01T07:09:36;22.70;74.20
45537;DHT22;31262;51.978;5.924;2022-08-01T07:12:03;22.70;74.10
45537;DHT22;31262;51.978;5.924;2022-08-01T07:14:29;22.70;74.20
45537;DHT22;31262;51.978;5.924;2022-08-01T07:16:55;22.70;74.10
45537;DHT22;31262;51.978;5.924;2022-08-01T07:19:20;22.70;73.90
45537;DHT22;31262;51.978;5.924;2022-08-01T07:21:46;22.70;73.80
45537;DHT22;31262;51.978;5.924;2022-08-01T07:24:13;22.70;73.90
45537;DHT22;31262;51.978;5.924;2022-08-01T07:26:44;22.80;74.60
45537;DHT22;31262;51.978;5.924;2022-08-01T07:29:10;22.80;74.00
45537;DHT22;31262;51.978;5.924;2022-08-01T07:31:35;22.80;73.80
45537;DHT22;31262;51.978;5.924;2022-08-01T07:34:01;22.80;73.80
45537;DHT22;31262;51.978;5.924;2022-08-01T07:36:26;22.80;73.60
45537;DHT22;31262;51.978;5.924;2022-08-01T07:38:52;22.90;73.70
45537;DHT22;31262;51.978;5.924;2022-08-01T07:41:18;22.90;73.20
45537;DHT22;31262;51.978;5.924;2022-08-01T07:43:43;22.90;72.80
45537;DHT22;31262;51.978;5.924;2022-08-01T07:46:09;22.90;72.90
45537;DHT22;31262;51.978;5.924;2022-08-01T07:48:35;22.90;72.90
45537;DHT22;31262;51.978;5.924;2022-08-01T07:51:00;22.90;72.70
45537;DHT22;31262;51.978;5.924;2022-08-01T07:53:26;22.90;72.70
45537;DHT22;31262;51.978;5.924;2022-08-01T07:55:51;22.90;72.50
45537;DHT22;31262;51.978;5.924;2022-08-01T07:58:17;22.90;72.60
45537;DHT22;31262;51.978;5.924;2022-08-01T08:00:43;23.00;72.70
45537;DHT22;31262;51.978;5.924;2022-08-01T08:03:09;23.00;72.50
45537;DHT22;31262;51.978;5.924;2022-08-01T08:05:35;23.00;72.50
45537;DHT22;31262;51.978;5.924;2022-08-01T08:08:04;23.00;72.70
45537;DHT22;31262;51.978;5.924;2022-08-01T08:10:30;23.00;73.50
45537;DHT22;31262;51.978;5.924;2022-08-01T08:12:55;22.90;72.90
45537;DHT22;31262;51.978;5.924;2022-08-01T08:15:21;23.00;73.40
45537;DHT22;31262;51.978;5.924;2022-08-01T08:17:47;23.00;73.10
45537;DHT22;31262;51.978;5.924;2022-08-01T08:20:12;23.00;72.90
45537;DHT22;31262;51.978;5.924;2022-08-01T08:22:38;23.00;73.00
45537;DHT22;31262;51.978;5.924;2022-08-01T08:25:04;23.00;73.10
45537;DHT22;31262;51.978;5.924;2022-08-01T08:27:30;23.00;72.80
45537;DHT22;31262;51.978;5.924;2022-08-01T08:29:56;23.00;72.80
45537;DHT22;31262;51.978;5.924;2022-08-01T08:32:21;23.00;73.00
45537;DHT22;31262;51.978;5.924;2022-08-01T08:34:47;22.90;72.90
45537;DHT22;31262;51.978;5.924;2022-08-01T08:37:13;22.90;72.90
45537;DHT22;31262;51.978;5.924;2022-08-01T08:39:38;22.90;72.70
45537;DHT22;31262;51.978;5.924;2022-08-01T08:42:08;22.90;72.70
45537;DHT22;31262;51.978;5.924;2022-08-01T08:44:33;22.90;72.60
45537;DHT22;31262;51.978;5.924;2022-08-01T08:47:01;22.90;72.70
45537;DHT22;31262;51.978;5.924;2022-08-01T08:49:31;22.90;72.90
45537;DHT22;31262;51.978;5.924;2022-08-01T08:51:59;22.90;72.60
45537;DHT22;31262;51.978;5.924;2022-08-01T08:54:26;23.00;72.20
45537;DHT22;31262;51.978;5.924;2022-08-01T08:56:53;23.00;72.00
45537;DHT22;31262;51.978;5.924;2022-08-01T08:59:19;23.00;72.10
45537;DHT22;31262;51.978;5.924;2022-08-01T09:01:46;23.00;72.30
45537;DHT22;31262;51.978;5.924;2022-08-01T09:04:12;23.10;72.10
45537;DHT22;31262;51.978;5.924;2022-08-01T09:06:38;23.10;71.90
45537;DHT22;31262;51.978;5.924;2022-08-01T09:09:05;23.10;71.70
45537;DHT22;31262;51.978;5.924;2022-08-01T09:11:31;23.20;71.60
45537;DHT22;31262;51.978;5.924;2022-08-01T09:14:10;23.20;71.60
45537;DHT22;31262;51.978;5.924;2022-08-01T09:16:41;23.30;71.30
45537;DHT22;31262;51.978;5.924;2022-08-01T09:19:13;23.20;71.10
45537;DHT22;31262;51.978;5.924;2022-08-01T09:21:39;23.30;71.00
45537;DHT22;31262;51.978;5.924;2022-08-01T09:24:14;23.20;71.00
45537;DHT22;31262;51.978;5.924;2022-08-01T09:26:40;23.20;71.00
45537;DHT22;31262;51.978;5.924;2022-08-01T09:29:09;23.10;71.40
45537;DHT22;31262;51.978;5.924;2022-08-01T09:31:43;23.10;71.50
45537;DHT22;31262;51.978;5.924;2022-08-01T09:34:09;23.10;71.80
45537;DHT22;31262;51.978;5.924;2022-08-01T09:36:50;23.00;72.00
45537;DHT22;31262;51.978;5.924;2022-08-01T09:39:18;23.00;72.00
45537;DHT22;31262;51.978;5.924;2022-08-01T09:41:44;22.90;72.60
45537;DHT22;31262;51.978;5.924;2022-08-01T09:44:09;22.90;73.00
45537;DHT22;31262;51.978;5.924;2022-08-01T09:46:35;22.90;73.30
45537;DHT22;31262;51.978;5.924;2022-08-01T09:49:05;22.80;73.40
45537;DHT22;31262;51.978;5.924;2022-08-01T09:51:36;22.80;73.60
45537;DHT22;31262;51.978;5.924;2022-08-01T09:54:04;22.80;73.70
45537;DHT22;31262;51.978;5.924;2022-08-01T09:56:42;22.80;73.60
45537;DHT22;31262;51.978;5.924;2022-08-01T09:59:08;22.80;73.60
45537;DHT22;31262;51.978;5.924;2022-08-01T10:01:47;22.70;74.00
45537;DHT22;31262;51.978;5.924;2022-08-01T10:04:18;22.50;74.00
45537;DHT22;31262;51.978;5.924;2022-08-01T10:06:46;22.60;74.30
45537;DHT22;31262;51.978;5.924;2022-08-01T10:09:15;22.70;74.40
45537;DHT22;31262;51.978;5.924;2022-08-01T10:11:51;22.70;74.20
45537;DHT22;31262;51.978;5.924;2022-08-01T10:14:17;22.70;74.30
45537;DHT22;31262;51.978;5.924;2022-08-01T10:16:45;22.70;75.30
45537;DHT22;31262;51.978;5.924;2022-08-01T10:19:13;22.70;74.50
45537;DHT22;31262;51.978;5.924;2022-08-01T10:21:39;22.80;74.70
45537;DHT22;31262;51.978;5.924;2022-08-01T10:24:05;22.80;74.70
45537;DHT22;31262;51.978;5.924;2022-08-01T10:26:33;22.80;74.50
45537;DHT22;31262;51.978;5.924;2022-08-01T10:29:00;22.80;74.70
45537;DHT22;31262;51.978;5.924;2022-08-01T10:31:26;22.80;74.60
45537;DHT22;31262;51.978;5.924;2022-08-01T10:33:57;22.80;74.60
45537;DHT22;31262;51.978;5.924;2022-08-01T10:36:24;22.80;74.50
45537;DHT22;31262;51.978;5.924;2022-08-01T10:38:50;22.80;74.00
45537;DHT22;31262;51.978;5.924;2022-08-01T10:41:19;22.90;74.50
45537;DHT22;31262;51.978;5.924;2022-08-01T10:43:44;22.90;74.70
45537;DHT22;31262;51.978;5.924;2022-08-01T10:46:10;22.80;75.10
45537;DHT22;31262;51.978;5.924;2022-08-01T10:48:57;22.90;74.80
45537;DHT22;31262;51.978;5.924;2022-08-01T10:51:26;23.00;74.50
45537;DHT22;31262;51.978;5.924;2022-08-01T10:53:53;22.90;74.80
45537;DHT22;31262;51.978;5.924;2022-08-01T10:56:20;23.00;74.70
45537;DHT22;31262;51.978;5.924;2022-08-01T10:58:47;23.00;74.70
45537;DHT22;31262;51.978;5.924;2022-08-01T11:01:29;23.10;74.70
45537;DHT22;31262;51.978;5.924;2022-08-01T11:04:11;23.20;74.40
45537;DHT22;31262;51.978;5.924;2022-08-01T11:06:41;23.20;74.30
45537;DHT22;31262;51.978;5.924;2022-08-01T11:12:04;23.30;74.10
45537;DHT22;31262;51.978;5.924;2022-08-01T11:14:33;23.30;73.90
45537;DHT22;31262;51.978;5.924;2022-08-01T11:20:14;23.30;73.80
45537;DHT22;31262;51.978;5.924;2022-08-01T11:30:42;23.50;72.00
45537;DHT22;31262;51.978;5.924;2022-08-01T11:33:08;23.40;71.60
45537;DHT22;31262;51.978;5.924;2022-08-01T11:35:35;23.50;71.70
45537;DHT22;31262;51.978;5.924;2022-08-01T11:38:23;23.60;71.60
45537;DHT22;31262;51.978;5.924;2022-08-01T11:44:09;23.40;71.70
45537;DHT22;31262;51.978;5.924;2022-08-01T11:46:52;23.70;71.30
45537;DHT22;31262;51.978;5.924;2022-08-01T11:49:44;23.80;70.70
45537;DHT22;31262;51.978;5.924;2022-08-01T11:52:16;23.90;70.10
45537;DHT22;31262;51.978;5.924;2022-08-01T11:54:51;23.90;69.80
45537;DHT22;31262;51.978;5.924;2022-08-01T11:57:19;24.00;69.40
45537;DHT22;31262;51.978;5.924;2022-08-01T11:59:48;24.00;69.60
45537;DHT22;31262;51.978;5.924;2022-08-01T12:02:34;24.10;69.60
45537;DHT22;31262;51.978;5.924;2022-08-01T12:07:31;24.30;68.70
45537;DHT22;31262;51.978;5.924;2022-08-01T12:10:08;24.30;68.10
45537;DHT22;31262;51.978;5.924;2022-08-01T12:12:35;24.50;67.60
45537;DHT22;31262;51.978;5.924;2022-08-01T12:15:04;24.50;68.10
45537;DHT22;31262;51.978;5.924;2022-08-01T12:17:57;24.60;67.30
45537;DHT22;31262;51.978;5.924;2022-08-01T12:20:24;24.60;66.70
45537;DHT22;31262;51.978;5.924;2022-08-01T12:22:55;24.60;66.50
45537;DHT22;31262;51.978;5.924;2022-08-01T12:25:21;24.60;66.20
45537;DHT22;31262;51.978;5.924;2022-08-01T12:27:48;24.60;65.70
45537;DHT22;31262;51.978;5.924;2022-08-01T12:30:19;24.70;65.20
45537;DHT22;31262;51.978;5.924;2022-08-01T12:32:49;24.70;64.90
45537;DHT22;31262;51.978;5.924;2022-08-01T12:35:19;24.60;64.70
45537;DHT22;31262;51.978;5.924;2022-08-01T12:37:53;24.60;64.40
45537;DHT22;31262;51.978;5.924;2022-08-01T12:40:23;24.60;64.70
45537;DHT22;31262;51.978;5.924;2022-08-01T12:42:51;24.60;64.20
45537;DHT22;31262;51.978;5.924;2022-08-01T12:45:19;24.60;64.00
45537;DHT22;31262;51.978;5.924;2022-08-01T12:47:46;24.60;63.70
45537;DHT22;31262;51.978;5.924;2022-08-01T12:50:16;24.60;63.50
45537;DHT22;31262;51.978;5.924;2022-08-01T12:52:43;24.60;63.20
45537;DHT22;31262;51.978;5.924;2022-08-01T12:55:12;24.60;63.30
45537;DHT22;31262;51.978;5.924;2022-08-01T12:57:41;24.60;62.70
45537;DHT22;31262;51.978;5.924;2022-08-01T13:00:15;24.60;62.30
45537;DHT22;31262;51.978;5.924;2022-08-01T13:02:41;24.70;62.50
45537;DHT22;31262;51.978;5.924;2022-08-01T13:05:08;24.60;62.10
45537;DHT22;31262;51.978;5.924;2022-08-01T13:07:46;24.60;61.30
45537;DHT22;31262;51.978;5.924;2022-08-01T13:10:13;24.80;61.20
45537;DHT22;31262;51.978;5.924;2022-08-01T13:12:40;24.70;61.60
45537;DHT22;31262;51.978;5.924;2022-08-01T13:17:42;24.70;61.10
45537;DHT22;31262;51.978;5.924;2022-08-01T13:20:08;24.60;60.70
45537;DHT22;31262;51.978;5.924;2022-08-01T13:22:37;24.60;60.50
45537;DHT22;31262;51.978;5.924;2022-08-01T13:25:13;24.60;60.70
45537;DHT22;31262;51.978;5.924;2022-08-01T13:27:39;24.70;60.40
45537;DHT22;31262;51.978;5.924;2022-08-01T13:30:15;24.60;60.20
45537;DHT22;31262;51.978;5.924;2022-08-01T13:32:42;24.70;60.90
45537;DHT22;31262;51.978;5.924;2022-08-01T13:35:11;24.70;60.70
45537;DHT22;31262;51.978;5.924;2022-08-01T13:37:39;24.80;60.40
45537;DHT22;31262;51.978;5.924;2022-08-01T13:40:07;24.90;59.80
45537;DHT22;31262;51.978;5.924;2022-08-01T13:42:33;24.90;59.30
45537;DHT22;31262;51.978;5.924;2022-08-01T13:44:59;25.00;58.90
45537;DHT22;31262;51.978;5.924;2022-08-01T13:47:24;25.10;58.90
45537;DHT22;31262;51.978;5.924;2022-08-01T13:49:52;25.20;58.60
45537;DHT22;31262;51.978;5.924;2022-08-01T13:52:18;25.30;58.60
45537;DHT22;31262;51.978;5.924;2022-08-01T13:54:44;25.40;58.30
45537;DHT22;31262;51.978;5.924;2022-08-01T13:57:09;25.50;57.60
45537;DHT22;31262;51.978;5.924;2022-08-01T13:59:35;25.60;57.30
45537;DHT22;31262;51.978;5.924;2022-08-01T14:02:01;25.70;56.80
45537;DHT22;31262;51.978;5.924;2022-08-01T14:04:26;25.70;57.20
45537;DHT22;31262;51.978;5.924;2022-08-01T14:06:52;25.80;56.50
45537;DHT22;31262;51.978;5.924;2022-08-01T14:09:18;25.80;55.80
45537;DHT22;31262;51.978;5.924;2022-08-01T14:11:45;25.90;55.10
45537;DHT22;31262;51.978;5.924;2022-08-01T14:14:11;25.90;54.40
45537;DHT22;31262;51.978;5.924;2022-08-01T14:16:36;26.00;54.20
45537;DHT22;31262;51.978;5.924;2022-08-01T14:19:03;26.10;53.50
45537;DHT22;31262;51.978;5.924;2022-08-01T14:21:28;26.10;54.20
45537;DHT22;31262;51.978;5.924;2022-08-01T14:23:54;26.10;53.70
45537;DHT22;31262;51.978;5.924;2022-08-01T14:26:19;26.20;53.50
45537;DHT22;31262;51.978;5.924;2022-08-01T14:28:45;26.20;53.30
45537;DHT22;31262;51.978;5.924;2022-08-01T14:31:11;26.20;52.90
45537;DHT22;31262;51.978;5.924;2022-08-01T14:33:36;26.20;53.40
45537;DHT22;31262;51.978;5.924;2022-08-01T14:36:03;26.20;53.00
45537;DHT22;31262;51.978;5.924;2022-08-01T14:38:32;26.30;52.90
45537;DHT22;31262;51.978;5.924;2022-08-01T14:40:58;26.30;53.30
45537;DHT22;31262;51.978;5.924;2022-08-01T14:43:24;26.40;53.30
45537;DHT22;31262;51.978;5.924;2022-08-01T14:45:51;26.40;52.80
45537;DHT22;31262;51.978;5.924;2022-08-01T14:48:17;26.50;52.90
45537;DHT22;31262;51.978;5.924;2022-08-01T14:50:43;26.50;52.60
45537;DHT22;31262;51.978;5.924;2022-08-01T14:53:09;26.50;52.90
45537;DHT22;31262;51.978;5.924;2022-08-01T14:55:34;26.60;51.70
45537;DHT22;31262;51.978;5.924;2022-08-01T14:58:00;26.60;50.90
45537;DHT22;31262;51.978;5.924;2022-08-01T15:00:25;26.70;51.10
45537;DHT22;31262;51.978;5.924;2022-08-01T15:02:51;26.80;50.70
45537;DHT22;31262;51.978;5.924;2022-08-01T15:05:17;26.90;50.10
45537;DHT22;31262;51.978;5.924;2022-08-01T15:07:42;26.90;49.70
45537;DHT22;31262;51.978;5.924;2022-08-01T15:10:08;26.90;49.40
45537;DHT22;31262;51.978;5.924;2022-08-01T15:12:35;27.00;49.20
45537;DHT22;31262;51.978;5.924;2022-08-01T15:15:00;27.00;49.20
45537;DHT22;31262;51.978;5.924;2022-08-01T15:17:27;27.00;48.20
45537;DHT22;31262;51.978;5.924;2022-08-01T15:20:00;27.10;47.70
45537;DHT22;31262;51.978;5.924;2022-08-01T15:22:27;27.10;47.90
45537;DHT22;31262;51.978;5.924;2022-08-01T15:24:54;27.00;47.30
45537;DHT22;31262;51.978;5.924;2022-08-01T15:27:20;27.10;47.90
45537;DHT22;31262;51.978;5.924;2022-08-01T15:29:47;27.10;48.50
45537;DHT22;31262;51.978;5.924;2022-08-01T15:32:12;27.10;48.20
45537;DHT22;31262;51.978;5.924;2022-08-01T15:34:38;27.20;48.20
45537;DHT22;31262;51.978;5.924;2022-08-01T15:37:05;27.20;47.50
45537;DHT22;31262;51.978;5.924;2022-08-01T15:39:31;27.20;48.20
45537;DHT22;31262;51.978;5.924;2022-08-01T15:41:59;27.30;48.60
45537;DHT22;31262;51.978;5.924;2022-08-01T15:44:25;27.30;47.70
45537;DHT22;31262;51.978;5.924;2022-08-01T15:46:51;27.30;46.20
45537;DHT22;31262;51.978;5.924;2022-08-01T15:49:17;27.30;45.80
45537;DHT22;31262;51.978;5.924;2022-08-01T15:51:43;27.30;45.20
45537;DHT22;31262;51.978;5.924;2022-08-01T15:54:09;27.20;44.80
45537;DHT22;31262;51.978;5.924;2022-08-01T15:56:35;27.30;44.20
45537;DHT22;31262;51.978;5.924;2022-08-01T15:59:01;27.30;43.50
45537;DHT22;31262;51.978;5.924;2022-08-01T16:01:26;27.20;43.40
45537;DHT22;31262;51.978;5.924;2022-08-01T16:03:53;27.20;44.50
45537;DHT22;31262;51.978;5.924;2022-08-01T16:06:19;27.20;45.70